Time;durP1;ratioP1;P1;durP2;ratioP2;P2;SDS_P1;SDS_P2;PMS_P1;PMS_P2;Temp;Humidity;BMP_temperature;BMP_pressure;BME280_temperature;BME280_humidity;BME280_pressure;Samples;Min_cycle;Max_cycle;Signal;HPM_P1;HPM_P2
2021/11/27 00:00:32;;;;;;;13.05;10.57;;;;;;;7.01;50.86;93030.78;4970087;28;20023;-68
2021/11/27 00:02:58;;;;;;;11.48;9.65;;;;;;;6.99;50.85;93033.78;4969057;28;20133;-67
2021/11/27 00:05:24;;;;;;;13.15;10.00;;;;;;;6.93;51.17;93031.69;4970397;28;20034;-68
2021/11/27 00:07:51;;;;;;;13.68;10.23;;;;;;;6.89;51.04;93020.25;4970540;28;20030;-67
2021/11/27 00:10:19;;;;;;;13.27;9.57;;;;;;;6.76;50.56;93007.03;4971984;28;20023;-68
2021/11/27 00:12:46;;;;;;;12.65;9.85;;;;;;;6.77;51.17;93019.16;4976793;28;20473;-68
2021/11/27 00:15:12;;;;;;;12.43;11.05;;;;;;;6.80;51.10;93019.56;4975391;28;20397;-68
2021/11/27 00:17:38;;;;;;;13.50;11.45;;;;;;;6.64;51.10;92995.69;4973971;28;20038;-68
2021/11/27 00:20:07;;;;;;;15.05;10.90;;;;;;;6.60;51.31;93011.44;4973684;28;20035;-68
2021/11/27 00:22:32;;;;;;;14.13;10.48;;;;;;;6.62;51.78;93003.97;4973854;28;20046;-67
2021/11/27 00:24:58;;;;;;;13.85;11.52;;;;;;;6.56;51.61;92992.09;4973962;28;20034;-67
2021/11/27 00:27:23;;;;;;;12.68;10.48;;;;;;;6.40;52.03;92975.38;4977517;28;20497;-69
2021/11/27 00:29:49;;;;;;;12.25;10.02;;;;;;;6.50;51.79;92994.19;4977081;28;20030;-67
2021/11/27 00:32:14;;;;;;;12.93;11.23;;;;;;;6.49;51.87;92991.84;4973384;28;20464;-68
2021/11/27 00:34:40;;;;;;;13.10;10.98;;;;;;;6.51;51.86;92997.59;4973852;28;20038;-68
2021/11/27 00:37:05;;;;;;;14.75;10.90;;;;;;;6.44;51.71;92965.66;4973779;28;20037;-70
2021/11/27 00:39:30;;;;;;;11.45;10.05;;;;;;;6.40;51.79;92972.72;4973400;28;20033;-69
2021/11/27 00:41:56;;;;;;;13.68;10.88;;;;;;;6.47;51.48;92968.41;4977717;28;20033;-68
2021/11/27 00:44:22;;;;;;;14.50;10.32;;;;;;;6.51;51.77;92960.59;4972624;28;20046;-67
2021/11/27 00:46:49;;;;;;;15.00;10.45;;;;;;;6.58;51.63;92957.41;4973841;28;20027;-68
2021/11/27 00:49:15;;;;;;;11.30;9.77;;;;;;;6.71;52.01;92966.88;4973679;28;20038;-68
2021/11/27 00:51:40;;;;;;;12.43;9.55;;;;;;;6.73;51.37;92962.78;4973238;28;20038;-69
2021/11/27 00:54:06;;;;;;;12.18;8.75;;;;;;;6.66;51.37;92951.25;4973476;28;20118;-68
2021/11/27 00:56:32;;;;;;;10.95;8.77;;;;;;;6.78;51.19;92967.84;4973909;28;20035;-67
2021/11/27 00:58:57;;;;;;;12.82;10.30;;;;;;;6.81;51.09;92965.63;4976508;28;20027;-67
2021/11/27 01:01:27;;;;;;;12.05;9.45;;;;;;;6.81;50.59;92968.25;4954026;28;20190;-68
2021/11/27 01:03:53;;;;;;;13.02;8.95;;;;;;;6.79;51.29;92965.97;4954066;28;20114;-68
2021/11/27 01:06:20;;;;;;;13.30;10.43;;;;;;;6.70;51.00;92950.22;4953992;28;20066;-68
2021/11/27 01:08:47;;;;;;;11.60;9.30;;;;;;;6.66;51.15;92938.81;4953994;28;20035;-68
2021/11/27 01:11:23;;;;;;;11.63;9.43;;;;;;;6.54;50.89;92930.09;4967847;28;20019;-67
2021/11/27 01:13:50;;;;;;;11.70;9.07;;;;;;;6.71;50.61;92959.72;4975263;28;20023;-67
2021/11/27 01:16:25;;;;;;;10.55;9.15;;;;;;;6.66;50.59;92954.66;4973137;28;20027;-67
2021/11/27 01:18:51;;;;;;;8.73;7.82;;;;;;;6.78;51.11;92956.50;4972988;28;20114;-68
2021/11/27 01:21:20;;;;;;;9.63;8.60;;;;;;;6.86;50.62;92947.69;4972835;28;20106;-68
2021/11/27 01:23:47;;;;;;;8.07;6.72;;;;;;;6.85;51.31;92932.16;4971714;28;20504;-68
2021/11/27 01:26:12;;;;;;;9.95;7.57;;;;;;;6.74;50.96;92935.25;4976253;28;20027;-71
2021/11/27 01:28:38;;;;;;;7.88;7.05;;;;;;;6.84;51.20;92943.84;4976399;28;20034;-68
2021/11/27 01:31:04;;;;;;;7.50;6.70;;;;;;;6.92;51.29;92951.63;4972449;28;20386;-68
2021/11/27 01:33:31;;;;;;;9.02;7.68;;;;;;;6.87;50.88;92930.72;4972469;28;20042;-68
2021/11/27 01:35:57;;;;;;;8.70;6.75;;;;;;;6.99;50.81;92951.06;4972738;28;20089;-69
2021/11/27 01:38:23;;;;;;;11.80;7.25;;;;;;;6.95;50.28;92942.25;4972555;28;20067;-68
2021/11/27 01:40:49;;;;;;;7.93;7.13;;;;;;;6.97;50.38;92937.44;4975054;28;20066;-67
2021/11/27 01:43:14;;;;;;;9.25;7.85;;;;;;;7.04;50.86;92942.91;4998949;22;20050;-71
2021/11/27 01:45:40;;;;;;;6.97;6.28;;;;;;;7.01;50.10;92948.84;4991964;28;20026;-71
2021/11/27 01:48:09;;;;;;;8.02;6.53;;;;;;;6.99;50.18;92962.41;4990670;28;20667;-71
2021/11/27 01:50:40;;;;;;;9.05;7.03;;;;;;;6.96;50.11;92949.88;4991438;28;20023;-71
2021/11/27 01:53:07;;;;;;;6.95;5.97;;;;;;;6.93;50.64;92939.19;4991720;28;20028;-71
2021/11/27 01:55:33;;;;;;;7.00;6.10;;;;;;;6.99;50.43;92945.78;4991195;28;20023;-71
2021/11/27 01:57:59;;;;;;;5.72;4.97;;;;;;;6.95;50.62;92929.81;4995390;28;20056;-72
2021/11/27 02:00:33;;;;;;;6.63;6.00;;;;;;;7.05;50.01;92931.22;4991215;28;20057;-72
2021/11/27 02:02:58;;;;;;;6.57;5.88;;;;;;;7.07;50.01;92921.09;4991585;28;20022;-71
2021/11/27 02:05:24;;;;;;;6.50;5.40;;;;;;;7.15;50.21;92917.53;4991614;28;20081;-72
2021/11/27 02:07:52;;;;;;;6.93;6.22;;;;;;;7.27;49.82;92922.78;4991887;28;20065;-72
2021/11/27 02:10:18;;;;;;;7.68;5.63;;;;;;;7.37;49.79;92913.59;4989387;28;20080;-72
2021/11/27 02:12:44;;;;;;;5.68;5.00;;;;;;;7.41;49.71;92921.63;4993472;28;20030;-71
2021/11/27 02:15:11;;;;;;;5.72;5.13;;;;;;;7.36;49.68;92900.69;4991275;28;20088;-72
2021/11/27 02:17:37;;;;;;;6.55;5.30;;;;;;;7.46;48.92;92894.91;4990228;28;20026;-72
2021/11/27 02:20:04;;;;;;;5.18;4.38;;;;;;;7.51;49.67;92892.78;4989798;28;20030;-72
2021/11/27 02:22:33;;;;;;;5.45;4.63;;;;;;;7.52;49.18;92896.22;4990924;28;20037;-72
2021/11/27 02:24:59;;;;;;;5.32;4.43;;;;;;;7.47;49.40;92876.09;4991147;28;20099;-72
2021/11/27 02:27:25;;;;;;;5.03;4.07;;;;;;;7.56;49.05;92884.63;4994478;28;20492;-71
2021/11/27 02:29:51;;;;;;;5.25;4.20;;;;;;;7.57;48.57;92858.94;4990811;28;20029;-72
2021/11/27 02:32:16;;;;;;;4.40;4.00;;;;;;;7.53;48.87;92858.84;4990912;28;20030;-72
2021/11/27 02:34:42;;;;;;;4.80;3.42;;;;;;;7.59;48.66;92867.31;4989336;28;20022;-72
2021/11/27 02:37:07;;;;;;;5.47;4.15;;;;;;;7.53;48.38;92863.38;4991162;28;20407;-72
2021/11/27 02:39:34;;;;;;;5.03;4.50;;;;;;;7.61;48.83;92864.31;4989330;28;20479;-72
2021/11/27 02:42:00;;;;;;;4.88;3.63;;;;;;;7.69;48.79;92856.22;4990045;28;20026;-72
2021/11/27 02:44:29;;;;;;;4.07;3.42;;;;;;;7.76;48.38;92853.72;5002814;28;20435;-72
2021/11/27 02:46:55;;;;;;;3.60;3.25;;;;;;;7.76;48.22;92848.44;4989585;28;20049;-71
2021/11/27 02:49:21;;;;;;;4.50;3.58;;;;;;;7.86;48.13;92847.16;4990758;28;20027;-72
2021/11/27 02:51:47;;;;;;;3.80;3.38;;;;;;;7.88;47.50;92844.94;4989224;28;20026;-71
2021/11/27 02:54:13;;;;;;;3.72;3.35;;;;;;;7.82;47.25;92848.94;4990913;28;20463;-71
2021/11/27 02:56:39;;;;;;;3.42;3.13;;;;;;;7.57;47.61;92848.34;4991287;28;20400;-72
2021/11/27 02:59:27;;;;;;;4.70;3.63;;;;;;;7.47;48.45;92843.56;4992607;28;20040;-72
2021/11/27 03:01:56;;;;;;;3.58;3.28;;;;;;;7.64;48.31;92848.53;4990414;28;20388;-72
2021/11/27 03:04:23;;;;;;;3.67;3.15;;;;;;;7.68;48.14;92820.28;4989393;28;20500;-72
2021/11/27 03:06:49;;;;;;;3.75;3.33;;;;;;;7.82;47.93;92835.72;4990626;28;20030;-72
2021/11/27 03:09:17;;;;;;;4.00;2.85;;;;;;;7.94;47.72;92834.88;4990250;28;20777;-72
2021/11/27 03:11:49;;;;;;;3.80;3.17;;;;;;;7.91;47.90;92819.66;4991576;28;20043;-73
2021/11/27 03:14:17;;;;;;;4.85;3.15;;;;;;;7.97;47.63;92823.59;4991467;28;20038;-72
2021/11/27 03:16:42;;;;;;;3.25;2.95;;;;;;;8.12;47.07;92836.03;4990538;28;20053;-72
2021/11/27 03:19:08;;;;;;;3.25;2.95;;;;;;;8.14;47.13;92825.88;4990743;28;20460;-72
2021/11/27 03:21:33;;;;;;;3.50;3.10;;;;;;;8.15;46.53;92827.41;4990903;28;20515;-73
2021/11/27 03:23:59;;;;;;;3.13;2.83;;;;;;;8.15;46.98;92824.78;4990393;28;20035;-72
2021/11/27 03:26:25;;;;;;;3.42;3.08;;;;;;;8.20;46.70;92829.81;4988814;28;20022;-73
2021/11/27 03:28:51;;;;;;;3.05;2.78;;;;;;;8.18;46.75;92813.47;4993843;28;20027;-73
2021/11/27 03:31:17;;;;;;;2.45;2.25;;;;;;;8.27;46.84;92832.59;4989449;28;20049;-72
2021/11/27 03:33:43;;;;;;;2.92;2.60;;;;;;;8.31;46.45;92830.81;4989324;28;20034;-72
2021/11/27 03:36:09;;;;;;;2.13;1.92;;;;;;;8.33;46.86;92833.84;4990200;28;20081;-71
2021/11/27 03:38:35;;;;;;;2.80;2.60;;;;;;;8.40;46.64;92825.34;4990382;28;20372;-72
2021/11/27 03:41:02;;;;;;;2.65;2.45;;;;;;;8.44;46.72;92831.47;4989523;28;20022;-72
2021/11/27 03:43:27;;;;;;;2.83;2.38;;;;;;;8.26;47.02;92820.47;4993393;28;20038;-73
2021/11/27 03:45:53;;;;;;;2.70;2.50;;;;;;;7.84;47.42;92822.16;4990176;28;20027;-72
2021/11/27 03:48:31;;;;;;;2.63;2.20;;;;;;;8.13;47.16;92826.97;4993731;28;20026;-72
2021/11/27 03:50:58;;;;;;;2.85;2.42;;;;;;;8.21;47.32;92819.97;4993734;28;20026;-72
2021/11/27 03:53:29;;;;;;;2.78;2.53;;;;;;;8.30;46.79;92818.66;4993587;28;20022;-72
2021/11/27 03:55:56;;;;;;;3.22;2.92;;;;;;;8.40;46.99;92816.63;4992472;28;20024;-72
2021/11/27 03:58:22;;;;;;;2.95;2.65;;;;;;;8.46;47.06;92815.25;4997426;28;20022;-72
2021/11/27 04:00:50;;;;;;;2.75;2.55;;;;;;;8.48;46.77;92810.34;4997210;28;20085;-72
2021/11/27 04:03:16;;;;;;;2.95;2.50;;;;;;;8.52;46.63;92816.50;4992219;28;20065;-72
2021/11/27 04:05:46;;;;;;;2.90;2.58;;;;;;;7.95;47.12;92810.69;4993784;28;20109;-72
2021/11/27 04:08:11;;;;;;;2.47;2.20;;;;;;;8.25;47.16;92818.94;4993838;28;20515;-73
2021/11/27 04:10:37;;;;;;;2.80;2.60;;;;;;;8.18;46.62;92824.06;4992230;28;20038;-72
2021/11/27 04:13:03;;;;;;;2.55;2.35;;;;;;;8.09;47.29;92818.22;4999125;28;20034;-72
2021/11/27 04:15:29;;;;;;;2.30;2.10;;;;;;;8.18;47.34;92800.22;4992115;28;20092;-72
2021/11/27 04:17:54;;;;;;;2.30;2.10;;;;;;;8.45;47.03;92822.44;4993595;28;20472;-71
2021/11/27 04:20:20;;;;;;;2.50;2.30;;;;;;;8.51;47.05;92823.69;4992028;28;20026;-72
2021/11/27 04:22:46;;;;;;;2.45;2.20;;;;;;;8.58;46.98;92812.47;4993449;28;20390;-72
2021/11/27 04:25:12;;;;;;;4.20;2.72;;;;;;;8.58;46.91;92804.50;4993552;28;20038;-72
2021/11/27 04:27:37;;;;;;;3.33;2.53;;;;;;;8.67;46.34;92810.38;4996364;28;20030;-72
2021/11/27 04:30:10;;;;;;;3.25;2.38;;;;;;;8.66;46.56;92806.19;4995279;28;20026;-72
2021/11/27 04:32:36;;;;;;;2.70;2.50;;;;;;;8.04;46.61;92739.06;4993011;28;20046;-72
2021/11/27 04:35:03;;;;;;;2.72;2.53;;;;;;;8.55;46.85;92800.69;4993377;28;20061;-71
2021/11/27 04:37:28;;;;;;;3.05;2.75;;;;;;;8.39;47.09;92791.22;4993373;28;20031;-72
2021/11/27 04:39:54;;;;;;;2.53;2.33;;;;;;;8.34;46.84;92798.34;4993412;28;20026;-71
2021/11/27 04:42:19;;;;;;;2.55;2.35;;;;;;;8.44;47.09;92798.91;4991232;28;20480;-71
2021/11/27 04:44:45;;;;;;;2.83;2.20;;;;;;;8.49;47.01;92796.00;4996783;28;20149;-71
2021/11/27 04:47:11;;;;;;;2.33;2.13;;;;;;;8.60;46.74;92812.91;4993058;28;20578;-71
2021/11/27 04:49:37;;;;;;;3.00;2.72;;;;;;;8.57;46.90;92814.34;4992860;28;20034;-70
2021/11/27 04:52:03;;;;;;;3.03;2.55;;;;;;;8.62;47.13;92820.50;4992743;28;20034;-73
2021/11/27 04:54:28;;;;;;;2.70;2.50;;;;;;;8.66;46.82;92811.50;4991703;28;20435;-72
2021/11/27 04:56:54;;;;;;;2.85;2.60;;;;;;;8.59;47.04;92800.75;4990987;28;20041;-73
2021/11/27 04:59:19;;;;;;;3.05;2.75;;;;;;;8.66;46.53;92806.19;4995840;28;20022;-71
2021/11/27 05:01:44;;;;;;;2.60;2.40;;;;;;;8.72;46.60;92798.72;4990942;28;20468;-71
2021/11/27 05:04:10;;;;;;;3.50;3.20;;;;;;;8.76;46.63;92803.00;4991510;28;20452;-73
2021/11/27 05:06:35;;;;;;;3.00;2.70;;;;;;;8.80;46.62;92805.69;4992881;28;20106;-70
2021/11/27 05:09:01;;;;;;;3.22;2.92;;;;;;;8.81;46.72;92804.59;4992415;28;20392;-73
2021/11/27 05:11:26;;;;;;;3.92;3.55;;;;;;;8.87;46.81;92799.78;4992087;28;20034;-71
2021/11/27 05:13:52;;;;;;;3.97;3.58;;;;;;;8.84;46.42;92794.03;4992346;28;20025;-70
2021/11/27 05:16:17;;;;;;;3.75;3.45;;;;;;;8.73;46.42;92795.72;4992557;28;20027;-73
2021/11/27 05:18:43;;;;;;;3.75;3.45;;;;;;;8.48;46.90;92795.22;4992519;28;20377;-73
2021/11/27 05:21:10;;;;;;;4.22;3.83;;;;;;;8.71;47.17;92808.56;4992060;28;20026;-73
2021/11/27 05:23:35;;;;;;;4.32;3.92;;;;;;;8.76;47.12;92804.88;4992268;28;20042;-72
2021/11/27 05:26:01;;;;;;;3.97;3.67;;;;;;;8.68;46.75;92792.59;4992519;28;20034;-71
2021/11/27 05:28:26;;;;;;;4.10;3.38;;;;;;;8.80;46.96;92806.50;4995635;28;20061;-72
2021/11/27 05:30:53;;;;;;;4.00;3.28;;;;;;;8.84;46.83;92794.03;4991716;28;20062;-70
2021/11/27 05:33:23;;;;;;;3.63;3.33;;;;;;;8.81;46.59;92775.44;4991827;28;20026;-73
2021/11/27 05:35:50;;;;;;;16.90;3.72;;;;;;;8.84;46.54;92783.44;4991771;28;20396;-71
2021/11/27 05:38:15;;;;;;;3.72;3.42;;;;;;;8.79;46.90;92782.97;4992713;28;20118;-71
2021/11/27 05:40:40;;;;;;;3.85;3.45;;;;;;;8.77;46.80;92775.38;4991742;28;20487;-71
2021/11/27 05:43:06;;;;;;;4.10;3.70;;;;;;;8.23;47.77;92792.03;4994839;28;20072;-72
2021/11/27 05:45:31;;;;;;;3.90;3.50;;;;;;;8.61;47.29;92787.94;4991955;28;20030;-71
2021/11/27 05:47:59;;;;;;;3.65;3.35;;;;;;;8.77;47.10;92796.56;4992043;28;20048;-71
2021/11/27 05:50:25;;;;;;;3.65;3.35;;;;;;;8.78;47.06;92800.75;4991521;28;20041;-71
2021/11/27 05:52:53;;;;;;;3.88;3.58;;;;;;;8.75;47.19;92796.16;4990440;28;20029;-71
2021/11/27 05:55:19;;;;;;;3.78;3.47;;;;;;;8.74;47.03;92793.84;4991977;28;20026;-72
2021/11/27 05:57:44;;;;;;;4.70;4.20;;;;;;;8.77;47.21;92788.63;4993215;28;20484;-71
2021/11/27 06:00:10;;;;;;;4.00;3.70;;;;;;;8.71;47.27;92797.97;5001047;28;20030;-72
2021/11/27 06:02:36;;;;;;;4.35;3.97;;;;;;;8.77;46.96;92793.16;4991584;28;20030;-71
2021/11/27 06:05:01;;;;;;;4.10;3.70;;;;;;;8.62;47.32;92796.63;4991632;28;20395;-72
2021/11/27 06:07:27;;;;;;;4.18;3.35;;;;;;;8.77;47.04;92804.53;4991810;28;20078;-72
2021/11/27 06:09:52;;;;;;;4.25;3.85;;;;;;;8.77;47.09;92803.75;4989078;28;20034;-74
2021/11/27 06:12:18;;;;;;;4.40;4.00;;;;;;;8.48;47.11;92787.28;4990497;28;20041;-73
2021/11/27 06:14:43;;;;;;;4.25;3.95;;;;;;;8.70;47.74;92822.16;4994981;28;20026;-72
2021/11/27 06:17:08;;;;;;;4.57;4.18;;;;;;;8.54;47.58;92806.31;4991637;28;20022;-71
2021/11/27 06:19:34;;;;;;;4.10;3.70;;;;;;;8.49;48.15;92822.47;4991373;28;20615;-71
2021/11/27 06:21:59;;;;;;;3.80;3.50;;;;;;;8.39;48.18;92813.19;4991041;28;20019;-70
2021/11/27 06:24:25;;;;;;;3.70;3.40;;;;;;;8.49;47.93;92820.59;4990100;28;20038;-70
2021/11/27 06:26:50;;;;;;;4.28;3.90;;;;;;;7.91;49.27;92838.19;4990838;28;20436;-71
2021/11/27 06:29:16;;;;;;;4.50;4.10;;;;;;;8.40;48.55;92851.84;4994301;28;20037;-70
2021/11/27 06:31:41;;;;;;;4.93;4.47;;;;;;;8.62;48.07;92847.75;4990574;28;20031;-72
2021/11/27 06:34:06;;;;;;;4.65;4.25;;;;;;;7.69;49.93;92850.16;4990886;28;20031;-70
2021/11/27 06:36:32;;;;;;;3.88;3.58;;;;;;;7.67;49.71;92853.13;4989663;28;20161;-71
2021/11/27 06:38:57;;;;;;;4.22;3.83;;;;;;;7.76;49.97;92866.19;4990676;28;20057;-71
2021/11/27 06:41:23;;;;;;;4.25;3.85;;;;;;;8.15;48.92;92869.78;4991081;28;20027;-72
2021/11/27 06:43:48;;;;;;;4.05;3.67;;;;;;;8.47;48.73;92877.72;4993564;28;20140;-74
2021/11/27 06:46:15;;;;;;;3.92;3.60;;;;;;;8.69;48.40;92885.00;4990970;28;20050;-76
2021/11/27 06:48:40;;;;;;;4.28;3.55;;;;;;;8.78;47.81;92885.56;4989934;28;20498;-72
2021/11/27 06:51:06;;;;;;;3.85;3.45;;;;;;;7.74;49.44;92885.06;4989212;28;20026;-72
2021/11/27 06:53:31;;;;;;;3.65;3.35;;;;;;;8.15;48.88;92890.19;4990704;28;20472;-70
2021/11/27 06:55:57;;;;;;;3.55;3.25;;;;;;;7.59;49.83;92895.66;4991914;28;20030;-70
2021/11/27 06:58:22;;;;;;;4.72;3.92;;;;;;;8.45;48.88;92898.50;4994038;28;20019;-73
2021/11/27 07:00:48;;;;;;;4.65;3.92;;;;;;;8.76;48.71;92897.66;4993704;28;20110;-69
2021/11/27 07:03:13;;;;;;;3.83;3.33;;;;;;;8.98;47.92;92909.47;4989186;28;20025;-72
2021/11/27 07:05:38;;;;;;;4.05;3.65;;;;;;;9.09;47.30;92890.00;4990651;28;20031;-72
2021/11/27 07:08:04;;;;;;;3.13;2.83;;;;;;;9.34;46.62;92897.66;4989290;28;20523;-69
2021/11/27 07:10:30;;;;;;;3.50;3.20;;;;;;;9.45;46.84;92881.94;4990194;28;20023;-68
2021/11/27 07:12:57;;;;;;;3.00;2.70;;;;;;;9.52;46.32;92888.16;4992822;28;20030;-70
2021/11/27 07:15:22;;;;;;;3.35;3.05;;;;;;;9.02;46.24;92891.75;4994194;28;20062;-68
2021/11/27 07:17:47;;;;;;;3.00;2.80;;;;;;;7.47;50.56;92897.25;4990304;28;20046;-66
2021/11/27 07:20:13;;;;;;;3.13;2.92;;;;;;;8.42;48.92;92886.69;4990060;28;20031;-69
2021/11/27 07:22:38;;;;;;;3.20;2.90;;;;;;;8.90;48.06;92868.00;4988939;28;20026;-69
2021/11/27 07:25:04;;;;;;;3.08;2.78;;;;;;;9.04;47.56;92858.44;4989286;28;20192;-70
2021/11/27 07:27:29;;;;;;;2.83;2.63;;;;;;;9.17;47.51;92859.09;4990177;28;20389;-71
2021/11/27 07:29:55;;;;;;;3.15;2.85;;;;;;;9.47;47.04;92887.66;4988565;28;20033;-69
2021/11/27 07:32:21;;;;;;;3.17;2.88;;;;;;;9.61;46.57;92879.97;4988648;28;20032;-69
2021/11/27 07:34:46;;;;;;;3.85;3.55;;;;;;;9.72;46.20;92886.22;4989921;28;20072;-69
2021/11/27 07:37:12;;;;;;;3.78;3.30;;;;;;;9.76;46.21;92881.75;4990092;28;20056;-69
2021/11/27 07:39:38;;;;;;;3.63;3.33;;;;;;;9.88;45.77;92888.78;4988533;28;20022;-68
2021/11/27 07:42:05;;;;;;;4.20;3.80;;;;;;;9.95;45.59;92907.50;4989801;28;20034;-69
2021/11/27 07:44:30;;;;;;;4.07;3.67;;;;;;;10.00;45.61;92899.22;4992373;28;20431;-69
2021/11/27 07:46:57;;;;;;;4.28;3.95;;;;;;;10.13;45.52;92908.56;4992599;28;20026;-69
2021/11/27 07:49:26;;;;;;;4.47;4.07;;;;;;;10.15;45.29;92905.53;4988848;28;20031;-70
2021/11/27 07:51:52;;;;;;;5.20;3.70;;;;;;;10.28;45.15;92909.56;4989995;28;20023;-68
2021/11/27 07:54:19;;;;;;;4.50;4.10;;;;;;;10.29;45.22;92905.81;4989150;28;20037;-71
2021/11/27 07:56:45;;;;;;;4.10;3.80;;;;;;;10.28;44.98;92906.91;4988939;28;20081;-72
2021/11/27 07:59:10;;;;;;;4.57;4.10;;;;;;;10.29;45.18;92902.38;4992710;28;20538;-68
2021/11/27 08:01:36;;;;;;;4.65;4.25;;;;;;;10.44;44.93;92921.94;4989382;28;20038;-70
2021/11/27 08:04:03;;;;;;;3.78;3.47;;;;;;;10.35;44.97;92919.56;4989729;28;20022;-69
2021/11/27 08:06:28;;;;;;;3.95;3.47;;;;;;;10.14;45.14;92923.38;4989883;28;20031;-70
2021/11/27 08:08:54;;;;;;;3.45;3.15;;;;;;;10.05;45.50;92914.09;4989566;28;20037;-68
2021/11/27 08:11:20;;;;;;;3.50;3.20;;;;;;;10.13;45.12;92913.09;4987890;28;20022;-73
2021/11/27 08:13:53;;;;;;;3.70;3.40;;;;;;;10.24;45.09;92916.72;4992723;28;20109;-72
2021/11/27 08:16:19;;;;;;;4.05;3.65;;;;;;;10.36;45.00;92918.44;4993359;28;20062;-67
2021/11/27 08:18:45;;;;;;;3.78;3.10;;;;;;;10.45;44.68;92904.91;4989825;28;20060;-71
2021/11/27 08:21:10;;;;;;;3.95;3.55;;;;;;;10.57;44.68;92920.63;4988727;28;20074;-80
2021/11/27 08:23:36;;;;;;;4.05;3.65;;;;;;;10.63;44.41;92922.63;4988478;28;20121;-67
2021/11/27 08:26:02;;;;;;;4.57;3.90;;;;;;;10.71;44.58;92936.81;4989570;28;20380;-66
2021/11/27 08:28:27;;;;;;;4.22;3.40;;;;;;;10.79;43.83;92925.13;4992850;28;20077;-67
2021/11/27 08:30:52;;;;;;;4.43;3.58;;;;;;;10.91;43.58;92926.84;4991419;28;20026;-68
2021/11/27 08:33:18;;;;;;;3.60;3.30;;;;;;;11.03;43.56;92929.28;4989168;28;20038;-66
2021/11/27 08:35:43;;;;;;;3.95;3.33;;;;;;;11.12;43.09;92929.00;4991708;28;20473;-68
2021/11/27 08:38:09;;;;;;;5.25;3.38;;;;;;;11.25;43.43;92924.97;4992913;28;20034;-67
2021/11/27 08:40:34;;;;;;;5.03;3.40;;;;;;;11.25;43.14;92918.91;4991454;28;20029;-68
2021/11/27 08:43:00;;;;;;;4.10;3.20;;;;;;;11.32;42.64;92935.72;4991838;28;20439;-73
2021/11/27 08:45:26;;;;;;;3.33;3.03;;;;;;;11.14;42.86;92938.16;4996446;28;20033;-73
2021/11/27 08:47:52;;;;;;;3.53;3.03;;;;;;;11.17;42.56;92929.47;4992591;28;20033;-71
2021/11/27 08:50:18;;;;;;;3.08;2.78;;;;;;;11.39;43.40;92946.44;4992216;28;20022;-71
2021/11/27 08:52:43;;;;;;;3.17;2.80;;;;;;;11.47;42.42;92952.66;4991493;28;20037;-69
2021/11/27 08:55:09;;;;;;;5.07;3.17;;;;;;;11.22;42.17;92962.22;4992656;28;20034;-72
2021/11/27 08:57:35;;;;;;;3.20;2.90;;;;;;;10.93;42.81;92957.25;4991031;28;20042;-73
2021/11/27 09:00:01;;;;;;;3.08;2.78;;;;;;;11.11;43.29;92962.06;4995874;28;20157;-71
2021/11/27 09:02:26;;;;;;;3.00;2.80;;;;;;;11.23;42.89;92947.78;4992069;28;20234;-72
2021/11/27 09:04:52;;;;;;;3.35;2.92;;;;;;;11.31;42.62;92946.72;4992516;28;20054;-68
2021/11/27 09:07:18;;;;;;;3.65;3.08;;;;;;;11.53;42.46;92967.16;4991167;28;20026;-70
2021/11/27 09:09:47;;;;;;;3.33;3.03;;;;;;;11.73;41.85;92970.44;4991511;28;20673;-71
2021/11/27 09:12:15;;;;;;;3.17;2.95;;;;;;;11.73;41.74;92965.13;4991485;28;20031;-70
2021/11/27 09:14:40;;;;;;;3.75;2.92;;;;;;;11.47;42.16;92989.16;4994367;28;20109;-72
2021/11/27 09:17:06;;;;;;;4.38;3.35;;;;;;;11.32;42.00;92988.97;4992129;28;20125;-71
2021/11/27 09:19:31;;;;;;;4.60;3.40;;;;;;;11.35;42.14;92988.22;4991909;28;20498;-68
2021/11/27 09:21:57;;;;;;;3.53;3.22;;;;;;;11.48;43.19;92996.00;4990685;28;20034;-68
2021/11/27 09:24:23;;;;;;;3.65;3.35;;;;;;;11.25;42.99;92999.50;4990691;28;20034;-68
2021/11/27 09:26:49;;;;;;;3.42;3.10;;;;;;;11.30;42.83;92996.53;4992312;28;20033;-68
2021/11/27 09:29:18;;;;;;;3.65;3.08;;;;;;;11.40;43.38;92997.78;4994666;28;20073;-68
2021/11/27 09:31:43;;;;;;;3.35;3.08;;;;;;;11.45;42.85;92997.47;4990464;28;20476;-68
2021/11/27 09:34:11;;;;;;;3.38;3.08;;;;;;;11.51;42.82;93000.59;4991765;28;20038;-68
2021/11/27 09:36:39;;;;;;;4.07;3.47;;;;;;;11.49;43.08;92984.97;4992243;28;20026;-68
2021/11/27 09:39:08;;;;;;;5.53;3.42;;;;;;;11.71;42.86;93001.97;4990368;28;20022;-67
2021/11/27 09:41:35;;;;;;;3.67;3.38;;;;;;;11.67;43.17;92996.63;4991450;28;20034;-69
2021/11/27 09:44:04;;;;;;;4.10;3.42;;;;;;;11.62;42.36;93006.84;4994726;28;20026;-71
2021/11/27 09:46:30;;;;;;;4.68;3.40;;;;;;;11.65;42.58;93000.78;4990105;28;20029;-69
2021/11/27 09:48:58;;;;;;;3.55;3.25;;;;;;;11.77;43.12;93005.09;4991431;28;20559;-69
2021/11/27 09:51:28;;;;;;;3.60;3.10;;;;;;;11.71;42.96;93005.41;4991425;28;20029;-69
2021/11/27 09:53:55;;;;;;;3.35;3.15;;;;;;;11.65;42.66;93000.78;4991401;28;20108;-67
2021/11/27 09:56:22;;;;;;;3.75;2.50;;;;;;;11.48;42.64;92996.75;4991602;28;20037;-67
2021/11/27 09:58:49;;;;;;;2.97;2.67;;;;;;;11.54;43.23;93003.31;4993284;28;20058;-67
2021/11/27 10:01:17;;;;;;;2.80;2.60;;;;;;;11.66;43.36;93002.28;4992058;28;20023;-68
2021/11/27 10:03:50;;;;;;;2.60;2.40;;;;;;;11.68;43.23;92992.06;4991077;28;20105;-68
2021/11/27 10:06:22;;;;;;;2.75;2.53;;;;;;;11.86;42.86;93011.69;4990279;28;20125;-68
2021/11/27 10:08:47;;;;;;;2.80;2.60;;;;;;;11.88;42.47;93009.47;4991579;28;20091;-68
2021/11/27 10:11:13;;;;;;;2.85;2.65;;;;;;;11.73;42.41;93005.06;4989830;28;20026;-67
2021/11/27 10:13:38;;;;;;;2.90;2.70;;;;;;;11.84;42.99;93013.97;4992050;28;20045;-68
2021/11/27 10:16:04;;;;;;;2.85;2.65;;;;;;;11.87;42.93;93007.13;4992396;28;20484;-68
2021/11/27 10:18:29;;;;;;;3.15;2.80;;;;;;;11.91;42.65;92999.97;4991108;28;20042;-69
2021/11/27 10:21:17;;;;;;;2.85;2.65;;;;;;;12.13;42.58;93008.94;4990839;28;20033;-68
2021/11/27 10:23:44;;;;;;;2.90;2.70;;;;;;;12.22;42.86;93002.19;4990666;28;20034;-67
2021/11/27 10:26:33;;;;;;;2.85;2.65;;;;;;;12.40;42.11;92999.72;4990892;28;20093;-68
2021/11/27 10:29:13;;;;;;;2.88;2.63;;;;;;;12.48;41.73;92995.19;4993737;28;20022;-68
2021/11/27 10:31:38;;;;;;;3.22;2.92;;;;;;;12.55;41.47;93000.59;4990226;28;20035;-68
2021/11/27 10:34:04;;;;;;;2.92;2.63;;;;;;;12.63;41.98;92990.75;4989703;28;20481;-68
2021/11/27 10:36:33;;;;;;;4.15;2.90;;;;;;;12.68;41.66;93001.09;4990879;28;20034;-68
2021/11/27 10:39:08;;;;;;;3.38;3.08;;;;;;;12.77;41.36;92996.22;4989273;28;20106;-68
2021/11/27 10:41:37;;;;;;;3.47;3.17;;;;;;;12.84;41.49;92988.25;4989213;28;20643;-68
2021/11/27 10:44:10;;;;;;;3.90;3.00;;;;;;;12.93;41.03;92991.38;4990254;28;20023;-68
2021/11/27 10:46:38;;;;;;;3.40;3.03;;;;;;;13.06;41.33;92999.84;4994650;28;20025;-69
2021/11/27 10:49:06;;;;;;;3.60;3.30;;;;;;;13.11;40.95;92985.41;4990355;28;20076;-70
2021/11/27 10:51:32;;;;;;;2.92;2.72;;;;;;;13.32;40.76;92990.91;4990549;28;20022;-69
2021/11/27 10:54:03;;;;;;;2.90;2.70;;;;;;;13.40;40.77;92995.13;4989563;28;20027;-69
2021/11/27 10:56:57;;;;;;;2.70;2.50;;;;;;;13.46;40.73;93004.34;4990401;28;20474;-69
2021/11/27 10:59:23;;;;;;;3.03;2.65;;;;;;;13.49;40.36;92994.78;4992785;28;20066;-69
2021/11/27 11:01:59;;;;;;;2.97;2.58;;;;;;;13.59;40.39;92996.00;4993846;28;20058;-71
2021/11/27 11:04:24;;;;;;;2.65;2.45;;;;;;;13.63;40.41;92992.19;4982696;28;20507;-70
2021/11/27 11:06:50;;;;;;;2.67;2.47;;;;;;;13.61;39.95;92999.81;4990434;28;20038;-69
2021/11/27 11:09:16;;;;;;;3.75;2.70;;;;;;;13.54;39.94;92994.44;4990096;28;20073;-70
2021/11/27 11:11:41;;;;;;;3.85;2.60;;;;;;;13.55;40.21;93005.88;4990034;28;20022;-67
2021/11/27 11:14:28;;;;;;;2.55;2.35;;;;;;;13.57;40.02;92998.28;4993438;28;20441;-67
2021/11/27 11:16:59;;;;;;;2.80;2.58;;;;;;;13.49;40.36;93006.25;4992571;28;20054;-67
2021/11/27 11:19:25;;;;;;;2.58;2.38;;;;;;;13.47;40.16;92999.75;4982061;28;20018;-68
2021/11/27 11:22:11;;;;;;;2.90;2.60;;;;;;;13.50;40.37;93001.66;4988272;28;20023;-67
2021/11/27 11:24:38;;;;;;;3.67;3.38;;;;;;;13.59;40.35;93001.34;4988617;28;20034;-67
2021/11/27 11:27:07;;;;;;;3.03;2.78;;;;;;;13.69;40.16;92993.38;4988789;28;20647;-69
2021/11/27 11:29:44;;;;;;;2.75;2.55;;;;;;;13.68;39.96;92991.06;4989503;28;20037;-66
2021/11/27 11:32:27;;;;;;;3.10;2.80;;;;;;;13.72;39.88;92992.63;4991207;28;20034;-68
2021/11/27 11:34:54;;;;;;;3.17;2.88;;;;;;;13.73;40.33;92998.72;4989682;28;20026;-67